Time;durP1;ratioP1;P1;durP2;ratioP2;P2;SDS_P1;SDS_P2;PMS_P1;PMS_P2;Temp;Humidity;BMP_temperature;BMP_pressure;BME280_temperature;BME280_humidity;BME280_pressure;Samples;Min_cycle;Max_cycle;Signal;HPM_P1;HPM_P2
2024/04/07 00:00:19;;;;;;;3.55;2.10;;;;;;;13.79;100.00;100882.38;5042282;28;20522;-71
2024/04/07 00:02:46;;;;;;;4.70;2.00;;;;;;;13.79;100.00;100887.75;5037446;28;20056;-70
2024/04/07 00:05:12;;;;;;;3.28;2.22;;;;;;;13.82;100.00;100895.28;5041457;28;20033;-70
2024/04/07 00:07:37;;;;;;;;;;;;;;;13.82;100.00;100887.19;5032949;28;20036;-70
2024/04/07 00:10:04;;;;;;;4.72;2.67;;;;;;;13.82;100.00;100879.13;5059744;28;19928;-70
2024/04/07 00:12:29;;;;;;;6.25;2.35;;;;;;;13.83;100.00;100880.72;5025118;28;20044;-72
2024/04/07 00:14:55;;;;;;;;;;;;;;;13.83;100.00;100875.34;5037314;28;20503;-70
2024/04/07 00:17:21;;;;;;;2.90;1.88;;;;;;;13.83;100.00;100874.53;5037898;28;19913;-71
2024/04/07 00:19:46;;;;;;;;;;;;;;;13.81;100.00;100868.63;5038960;28;20654;-71
2024/04/07 00:22:13;;;;;;;6.47;2.17;;;;;;;13.80;100.00;100865.13;5035033;28;19920;-71
2024/04/07 00:24:40;;;;;;;3.75;2.40;;;;;;;13.78;100.00;100870.00;5037608;28;20593;-72
2024/04/07 00:27:05;;;;;;;;;;;;;;;13.75;100.00;100865.22;5017501;28;20576;-70
2024/04/07 00:29:31;;;;;;;2.20;1.95;;;;;;;13.72;100.00;100860.38;5008196;28;19927;-71
2024/04/07 00:31:58;;;;;;;3.40;1.65;;;;;;;13.73;100.00;100855.81;5023457;28;20510;-70
2024/04/07 00:34:24;;;;;;;4.40;2.22;;;;;;;13.71;100.00;100848.03;5038812;28;20033;-70
2024/04/07 00:36:50;;;;;;;;;;;;;;;13.70;100.00;100851.00;5033725;28;20743;-70
2024/04/07 00:39:16;;;;;;;3.50;2.00;;;;;;;13.66;100.00;100850.75;5036155;28;19921;-72
2024/04/07 00:41:42;;;;;;;4.68;2.50;;;;;;;13.63;100.00;100845.97;5039525;28;20037;-72
2024/04/07 00:44:08;;;;;;;;;;;;;;;13.59;100.00;100839.53;5038504;28;20430;-72
2024/04/07 00:46:33;;;;;;;4.05;2.70;;;;;;;13.55;100.00;100844.72;5039207;28;20417;-72
2024/04/07 00:49:00;;;;;;;3.25;1.80;;;;;;;13.54;100.00;100842.28;5022118;28;20033;-72
2024/04/07 00:51:27;;;;;;;3.80;1.60;;;;;;;13.51;100.00;100838.28;5039653;28;20079;-71
2024/04/07 00:53:55;;;;;;;4.18;1.73;;;;;;;13.49;100.00;100834.31;5024174;28;20116;-71
2024/04/07 00:56:21;;;;;;;3.80;1.92;;;;;;;13.45;100.00;100827.88;5037430;28;20048;-71
2024/04/07 00:58:46;;;;;;;;;;;;;;;13.41;100.00;100822.25;5039586;28;20436;-71
2024/04/07 01:01:12;;;;;;;3.58;1.77;;;;;;;13.39;100.00;100813.69;5038569;28;20015;-71
2024/04/07 01:03:38;;;;;;;;;;;;;;;13.37;100.00;100815.88;5022828;28;20064;-71
2024/04/07 01:06:04;;;;;;;3.20;1.90;;;;;;;13.35;100.00;100813.47;5019110;28;19917;-71
2024/04/07 01:08:29;;;;;;;;;;;;;;;13.33;100.00;100815.63;5035794;28;20409;-71
2024/04/07 01:10:55;;;;;;;7.65;2.20;;;;;;;13.33;100.00;100815.63;5035675;28;19919;-69
2024/04/07 01:13:27;;;;;;;4.32;2.10;;;;;;;13.32;100.00;100799.78;5023196;28;20120;-70
2024/04/07 01:15:53;;;;;;;4.57;1.83;;;;;;;13.31;100.00;100801.66;5037371;28;20076;-72
2024/04/07 01:18:19;;;;;;;4.35;2.00;;;;;;;13.34;100.00;100798.41;5040212;28;20458;-70
2024/04/07 01:20:45;;;;;;;4.43;1.80;;;;;;;13.33;100.00;100799.47;5034274;28;20132;-71
2024/04/07 01:23:14;;;;;;;;;;;;;;;13.31;100.00;100790.09;5034130;28;20033;-72
2024/04/07 01:25:40;;;;;;;4.65;2.42;;;;;;;13.31;100.00;100787.41;5040507;28;20030;-70
2024/04/07 01:28:05;;;;;;;4.10;1.92;;;;;;;13.29;100.00;100786.91;5033904;28;20037;-73
2024/04/07 01:30:31;;;;;;;2.55;2.03;;;;;;;13.26;100.00;100788.25;5034414;28;20041;-72
2024/04/07 01:32:57;;;;;;;4.53;1.98;;;;;;;13.23;100.00;100794.22;5039937;28;20052;-71
2024/04/07 01:35:23;;;;;;;2.95;1.77;;;;;;;13.21;100.00;100807.16;5017650;28;20191;-71
2024/04/07 01:37:48;;;;;;;;;;;;;;;13.18;100.00;100818.44;5036879;28;20041;-70
2024/04/07 01:40:15;;;;;;;2.58;1.67;;;;;;;13.15;100.00;100835.16;5035322;28;19928;-69
2024/04/07 01:42:42;;;;;;;4.15;1.80;;;;;;;13.12;100.00;100835.72;5037960;28;20048;-72
2024/04/07 01:45:09;;;;;;;3.53;1.80;;;;;;;13.14;100.00;100833.56;5021734;28;20033;-71
2024/04/07 01:47:36;;;;;;;2.75;1.92;;;;;;;13.12;100.00;100827.66;5037239;28;20037;-72
2024/04/07 01:50:03;;;;;;;3.17;1.92;;;;;;;13.09;100.00;100825.53;5035999;28;20032;-71
2024/04/07 01:52:28;;;;;;;2.55;1.90;;;;;;;13.08;100.00;100826.63;5035945;28;20269;-71
2024/04/07 01:54:54;;;;;;;3.03;1.60;;;;;;;13.08;100.00;100821.25;5039161;28;20506;-71
2024/04/07 01:57:20;;;;;;;5.10;1.90;;;;;;;13.07;100.00;100815.06;5036555;28;20124;-70
2024/04/07 01:59:46;;;;;;;3.88;2.20;;;;;;;13.03;100.00;100815.91;5039435;28;20499;-71
2024/04/07 02:02:11;;;;;;;;;;;;;;;13.00;100.00;100805.72;5018783;28;20103;-71
2024/04/07 02:04:38;;;;;;;3.40;1.85;;;;;;;12.99;100.00;100804.13;5036066;28;19920;-71
2024/04/07 02:07:03;;;;;;;4.30;1.50;;;;;;;12.97;100.00;100801.72;5036075;28;20033;-71
2024/04/07 02:09:29;;;;;;;3.88;1.60;;;;;;;12.94;100.00;100796.09;5036998;28;20441;-70
2024/04/07 02:11:55;;;;;;;;;;;;;;;12.91;100.00;100796.69;5035224;28;20029;-72
2024/04/07 02:14:20;;;;;;;2.55;1.30;;;;;;;12.90;100.00;100800.44;5040237;28;19923;-71
2024/04/07 02:16:46;;;;;;;;;;;;;;;12.89;100.00;100793.47;5019964;28;20044;-73
2024/04/07 02:19:13;;;;;;;5.82;1.50;;;;;;;12.89;100.00;100799.66;5021646;28;20421;-72
2024/04/07 02:21:39;;;;;;;2.60;2.00;;;;;;;12.90;100.00;100793.19;5036584;28;20033;-73
2024/04/07 02:24:05;;;;;;;3.88;2.00;;;;;;;12.90;100.00;100792.38;5040829;28;20056;-71
2024/04/07 02:26:31;;;;;;;5.22;1.90;;;;;;;12.90;100.00;100792.38;5036863;28;20491;-72
2024/04/07 02:28:57;;;;;;;2.55;1.58;;;;;;;12.90;100.00;100784.31;5036600;28;20075;-72
2024/04/07 02:31:23;;;;;;;2.40;2.00;;;;;;;12.90;100.00;100787.00;5038372;28;20498;-72
2024/04/07 02:33:49;;;;;;;3.53;1.83;;;;;;;12.92;100.00;100798.28;5011660;28;20029;-71
2024/04/07 02:36:16;;;;;;;4.80;1.83;;;;;;;12.92;100.00;100792.91;5043380;28;20106;-74
2024/04/07 02:38:42;;;;;;;3.55;2.00;;;;;;;12.93;100.00;100792.59;5044255;28;20044;-72
2024/04/07 02:41:08;;;;;;;2.17;1.30;;;;;;;12.93;100.00;100792.59;5046861;28;20032;-72
2024/04/07 02:43:34;;;;;;;3.05;1.58;;;;;;;12.94;100.00;100782.66;5026396;28;20045;-73
2024/04/07 02:48:44;;;;;;;4.35;2.00;;;;;;;12.95;100.00;100781.59;5045508;28;19982;-71
2024/04/07 02:51:10;;;;;;;3.80;1.80;;;;;;;12.95;100.00;100781.59;5043689;28;20033;-72
2024/04/07 02:53:36;;;;;;;3.45;1.50;;;;;;;12.97;100.00;100782.09;5041314;28;20040;-71
2024/04/07 02:56:02;;;;;;;3.25;1.23;;;;;;;12.98;100.00;100773.75;5024975;28;20067;-72
2024/04/07 02:58:28;;;;;;;;;;;;;;;12.98;100.00;100784.50;5026096;28;20037;-72
2024/04/07 03:01:02;;;;;;;2.75;1.58;;;;;;;12.97;100.00;100785.59;5027935;28;19927;-71
2024/04/07 03:03:28;;;;;;;2.35;1.40;;;;;;;12.99;100.00;100798.75;5022578;28;20105;-71
2024/04/07 03:05:53;;;;;;;3.60;1.52;;;;;;;12.99;100.00;100794.16;5045353;28;20409;-71
2024/04/07 03:08:19;;;;;;;3.10;1.80;;;;;;;13.01;100.00;100791.22;5026016;28;20032;-71
2024/04/07 03:10:54;;;;;;;;;;;;;;;13.02;100.00;100798.19;5040505;28;20051;-71
2024/04/07 03:13:20;;;;;;;3.83;1.60;;;;;;;13.02;100.00;100798.19;5038383;28;19925;-71
2024/04/07 03:15:45;;;;;;;3.50;1.50;;;;;;;13.03;100.00;100799.78;5041463;28;20092;-71
2024/04/07 03:18:11;;;;;;;;;;;;;;;13.03;100.00;100805.97;5039136;28;20033;-71
2024/04/07 03:20:36;;;;;;;2.92;1.63;;;;;;;13.04;100.00;100807.56;5032322;28;19970;-72
2024/04/07 03:23:02;;;;;;;2.88;1.58;;;;;;;13.09;100.00;100815.59;5026496;28;20037;-71
2024/04/07 03:25:28;;;;;;;4.28;2.08;;;;;;;13.13;100.00;100810.41;5042055;28;20510;-71
2024/04/07 03:27:54;;;;;;;3.58;2.13;;;;;;;13.16;100.00;100814.44;5056908;28;20043;-69
2024/04/07 03:30:20;;;;;;;3.88;1.75;;;;;;;13.19;100.00;100822.72;5028231;28;20493;-70
2024/04/07 03:32:46;;;;;;;2.63;1.70;;;;;;;13.24;100.00;100822.72;5043126;28;20044;-72
2024/04/07 03:35:11;;;;;;;2.90;1.75;;;;;;;13.27;100.00;100815.97;5043404;28;20454;-71
2024/04/07 03:37:37;;;;;;;2.03;1.63;;;;;;;13.29;100.00;100811.91;5041998;28;20049;-72
2024/04/07 03:40:03;;;;;;;3.53;1.67;;;;;;;13.32;100.00;100814.03;5021444;28;20034;-71
2024/04/07 03:42:29;;;;;;;3.65;1.65;;;;;;;13.33;100.00;100804.84;5044688;28;20040;-71
2024/04/07 03:44:54;;;;;;;4.97;2.10;;;;;;;13.37;100.00;100802.41;5044203;28;20029;-72
2024/04/07 03:47:20;;;;;;;3.55;2.17;;;;;;;13.37;100.00;100794.34;5044637;28;20032;-71
2024/04/07 03:49:45;;;;;;;;;;;;;;;13.34;100.00;100795.72;5042022;28;20083;-71
2024/04/07 03:52:11;;;;;;;3.00;1.38;;;;;;;13.32;100.00;100792.50;5011708;28;19924;-71
2024/04/07 03:54:37;;;;;;;;;;;;;;;13.33;100.00;100787.91;5043123;28;20071;-71
2024/04/07 03:57:03;;;;;;;2.08;1.30;;;;;;;13.30;100.00;100794.69;5040768;28;19974;-72
2024/04/07 03:59:28;;;;;;;;;;;;;;;13.29;100.00;100793.09;5042842;28;20033;-72
2024/04/07 04:01:54;;;;;;;2.95;1.90;;;;;;;13.31;100.00;100782.84;5041415;28;20345;-72
2024/04/07 04:04:38;;;;;;;2.00;1.27;;;;;;;13.27;100.00;100792.56;5044681;28;20060;-71
2024/04/07 04:07:03;;;;;;;;;;;;;;;13.23;100.00;100799.59;5027056;28;20037;-71
2024/04/07 04:09:29;;;;;;;3.78;1.40;;;;;;;13.21;100.00;100804.47;5042479;28;19952;-71
2024/04/07 04:11:54;;;;;;;;;;;;;;;13.18;100.00;100812.28;5039094;28;20386;-72
2024/04/07 04:14:21;;;;;;;3.65;1.50;;;;;;;13.09;100.00;100804.81;5039814;28;19982;-71
2024/04/07 04:16:47;;;;;;;4.13;1.67;;;;;;;13.10;100.00;100811.00;5036548;28;20098;-71
2024/04/07 04:19:13;;;;;;;;;;;;;;;13.12;100.00;100809.63;5027360;28;20028;-72
2024/04/07 04:21:40;;;;;;;4.05;1.42;;;;;;;13.12;100.00;100819.56;5044428;28;19927;-71
2024/04/07 04:24:06;;;;;;;2.33;1.58;;;;;;;13.22;100.00;100829.47;5022179;28;20037;-72
2024/04/07 04:26:32;;;;;;;2.90;1.70;;;;;;;13.25;100.00;100826.22;5026773;28;20051;-72
2024/04/07 04:28:59;;;;;;;3.15;1.92;;;;;;;13.27;100.00;100853.59;5025637;28;20044;-72
2024/04/07 04:31:24;;;;;;;3.40;1.58;;;;;;;13.27;100.00;100869.75;5039923;28;20068;-72
2024/04/07 04:33:50;;;;;;;4.68;1.70;;;;;;;13.26;100.00;100863.56;5045075;28;20068;-72
2024/04/07 04:36:15;;;;;;;;;;;;;;;13.23;100.00;100869.53;5043593;28;20098;-73
2024/04/07 04:38:42;;;;;;;3.97;1.50;;;;;;;13.21;100.00;100879.78;5038470;28;19939;-71
2024/04/07 04:41:07;;;;;;;;;;;;;;;13.16;100.00;100890.53;5042321;28;20043;-72
2024/04/07 04:43:32;;;;;;;4.93;1.33;;;;;;;13.10;100.00;100897.84;5041805;28;20011;-73
2024/04/07 04:46:04;;;;;;;3.67;2.10;;;;;;;13.10;100.00;100910.50;5042895;28;20036;-72
2024/04/07 04:48:31;;;;;;;2.35;1.42;;;;;;;13.14;100.00;100908.84;5022772;28;20586;-72
2024/04/07 04:50:57;;;;;;;3.78;1.90;;;;;;;13.18;100.00;100914.44;5042217;28;20036;-72
2024/04/07 04:53:23;;;;;;;6.00;1.88;;;;;;;13.15;100.00;100926.59;5042312;28;20045;-72
2024/04/07 04:55:49;;;;;;;3.90;1.77;;;;;;;13.19;100.00;100929.50;5025202;28;20052;-72
2024/04/07 04:58:14;;;;;;;3.42;1.70;;;;;;;13.16;100.00;100936.25;5040660;28;20676;-72
2024/04/07 05:00:39;;;;;;;4.65;1.50;;;;;;;13.13;100.00;100934.91;5034050;28;20049;-72
2024/04/07 05:03:05;;;;;;;2.38;1.40;;;;;;;13.12;100.00;100943.28;5039709;28;20075;-72
2024/04/07 05:05:31;;;;;;;4.70;1.70;;;;;;;13.11;100.00;100960.50;5039347;28;20514;-71
2024/04/07 05:07:56;;;;;;;2.03;1.52;;;;;;;13.10;100.00;100958.88;5031154;28;20120;-71
2024/04/07 05:10:22;;;;;;;5.85;1.67;;;;;;;13.17;100.00;100972.81;5041621;28;20108;-73
2024/04/07 05:12:48;;;;;;;2.92;1.60;;;;;;;13.26;100.00;100960.38;5036887;28;20116;-73
2024/04/07 05:15:14;;;;;;;4.80;1.70;;;;;;;13.35;100.00;100979.44;5038931;28;20035;-71
2024/04/07 05:17:39;;;;;;;7.28;1.52;;;;;;;13.50;100.00;100997.31;5040834;28;20037;-72
2024/04/07 05:20:05;;;;;;;4.95;1.60;;;;;;;13.60;100.00;101016.06;5036516;28;20483;-72
2024/04/07 05:22:31;;;;;;;;;;;;;;;13.64;100.00;101030.56;5042205;28;20029;-72
2024/04/07 05:24:57;;;;;;;6.50;2.03;;;;;;;13.69;100.00;101043.97;5039482;28;19917;-73
2024/04/07 05:27:22;;;;;;;;;;;;;;;13.74;100.00;101068.16;5041537;28;20557;-73
2024/04/07 05:29:48;;;;;;;12.38;2.00;;;;;;;13.83;100.00;101088.00;5039856;28;20015;-73
2024/04/07 05:32:14;;;;;;;;;;;;;;;13.89;100.00;101094.94;5040332;28;20134;-72
2024/04/07 05:34:40;;;;;;;10.00;1.92;;;;;;;14.00;100.00;101102.91;5039143;28;19913;-71
2024/04/07 05:37:06;;;;;;;;;;;;;;;14.05;100.00;101137.88;5042812;28;20082;-74
2024/04/07 05:39:32;;;;;;;3.95;1.70;;;;;;;14.06;100.00;101134.91;5041939;28;19932;-73
2024/04/07 05:41:59;;;;;;;3.85;1.80;;;;;;;14.08;100.00;101135.41;5026282;28;20490;-73
2024/04/07 05:44:25;;;;;;;5.43;1.70;;;;;;;14.06;100.00;101140.28;5040154;28;20826;-73
2024/04/07 05:46:52;;;;;;;4.70;1.60;;;;;;;14.03;100.00;101142.75;5044145;28;20033;-74
2024/04/07 05:49:17;;;;;;;5.57;1.65;;;;;;;14.06;100.00;101144.88;5035089;28;20037;-73
2024/04/07 05:51:43;;;;;;;10.63;2.28;;;;;;;14.07;100.00;101165.34;5035508;28;20040;-74
2024/04/07 05:54:08;;;;;;;;;;;;;;;14.07;100.00;101174.22;5039763;28;20031;-72
2024/04/07 05:56:34;;;;;;;6.72;1.70;;;;;;;14.14;100.00;101174.69;5041265;28;19924;-73
2024/04/07 05:59:00;;;;;;;;;;;;;;;14.14;100.00;101180.06;5037410;28;20179;-71
2024/04/07 06:01:26;;;;;;;5.15;1.60;;;;;;;14.15;100.00;101176.28;5035646;28;19916;-72
2024/04/07 06:03:51;;;;;;;3.92;1.90;;;;;;;14.16;100.00;101171.75;5037433;28;20548;-73
2024/04/07 06:06:17;;;;;;;4.15;1.40;;;;;;;14.14;100.00;101182.78;5038551;28;20048;-72
2024/04/07 06:08:42;;;;;;;4.03;1.25;;;;;;;14.14;100.00;101195.44;5045968;28;20037;-73
2024/04/07 06:11:08;;;;;;;;;;;;;;;14.14;100.00;101198.13;5045181;28;20551;-72
2024/04/07 06:13:34;;;;;;;6.95;1.83;;;;;;;14.14;100.00;101211.59;5042113;28;19984;-72
2024/04/07 06:15:59;;;;;;;;;;;;;;;14.16;100.00;101198.66;5043471;28;20477;-72
2024/04/07 06:18:25;;;;;;;5.97;1.70;;;;;;;14.15;100.00;101194.34;5042656;28;19913;-72
2024/04/07 06:20:53;;;;;;;3.60;1.90;;;;;;;14.21;100.00;101207.50;5045377;28;20044;-72
2024/04/07 06:23:20;;;;;;;5.28;1.70;;;;;;;14.27;100.00;101200.19;5045989;28;20048;-73
2024/04/07 06:25:47;;;;;;;3.72;1.50;;;;;;;14.33;100.00;101199.03;5047413;28;20071;-71
2024/04/07 06:28:13;;;;;;;6.60;1.90;;;;;;;14.36;100.00;101203.88;5045041;28;20036;-71
2024/04/07 06:30:38;;;;;;;4.15;1.60;;;;;;;14.39;100.00;101197.91;5027317;28;20121;-72
2024/04/07 06:33:04;;;;;;;;;;;;;;;14.42;100.00;101213.50;5028493;28;20059;-72
2024/04/07 06:35:31;;;;;;;4.85;1.23;;;;;;;14.45;100.00;101218.34;5062059;28;20411;-72
2024/04/07 06:37:58;;;;;;;4.82;1.58;;;;;;;14.51;100.00;101237.19;5026388;28;20043;-73
2024/04/07 06:40:24;;;;;;;4.13;1.52;;;;;;;14.54;100.00;101236.63;5042915;28;20025;-73
2024/04/07 06:42:50;;;;;;;;;;;;;;;14.64;100.00;101231.16;5047280;28;20036;-71
2024/04/07 06:45:15;;;;;;;5.25;1.70;;;;;;;14.70;100.00;101235.41;5042648;28;19943;-72
2024/04/07 06:47:41;;;;;;;;;;;;;;;14.78;100.00;101231.28;5046039;28;20090;-72
2024/04/07 06:50:06;;;;;;;3.75;2.08;;;;;;;14.84;100.00;101232.84;5040327;28;20361;-72
2024/04/07 06:52:32;;;;;;;;;;;;;;;14.92;100.00;101238.41;5041984;28;20498;-72
2024/04/07 06:54:58;;;;;;;4.05;1.77;;;;;;;14.97;100.00;101241.03;5043620;28;19935;-71
2024/04/07 06:57:23;;;;;;;;;;;;;;;15.05;100.00;101241.50;5028707;28;20040;-73
2024/04/07 06:59:51;;;;;;;4.78;1.30;;;;;;;15.09;100.00;101253.31;5045745;28;19935;-73
2024/04/07 07:02:18;;;;;;;4.90;1.50;;;;;;;15.14;100.00;101261.34;5035502;28;20037;-72
2024/04/07 07:04:46;;;;;;;3.33;1.30;;;;;;;15.20;100.00;101260.19;5033777;28;20391;-72
2024/04/07 07:07:12;;;;;;;3.90;1.65;;;;;;;15.27;100.00;101268.75;5038448;28;20115;-72
2024/04/07 07:09:37;;;;;;;;;;;;;;;15.34;100.00;101261.09;5044997;28;20128;-72
2024/04/07 07:12:03;;;;;;;5.05;1.65;;;;;;;15.40;100.00;101291.53;5044184;28;19923;-72
2024/04/07 07:14:29;;;;;;;;;;;;;;;15.43;100.00;101282.84;5017264;28;20148;-73
2024/04/07 07:16:55;;;;;;;4.00;1.27;;;;;;;15.47;100.00;101265.00;5022196;28;20428;-72
2024/04/07 07:19:21;;;;;;;;;;;;;;;15.48;100.00;101266.59;5036755;28;20039;-72
2024/04/07 07:21:48;;;;;;;3.03;0.90;;;;;;;15.48;100.00;101262.00;5029080;28;20022;-72
2024/04/07 07:24:13;;;;;;;2.90;1.40;;;;;;;15.49;100.00;101252.81;5039286;28;20536;-73
2024/04/07 07:26:39;;;;;;;;;;;;;;;15.50;100.00;101277.91;5039261;28;20033;-72
2024/04/07 07:29:05;;;;;;;2.28;1.15;;;;;;;15.50;100.00;101297.59;5026105;28;19958;-72
2024/04/07 07:31:31;;;;;;;;;;;;;;;15.54;100.00;101273.53;5044079;28;20409;-73
2024/04/07 07:33:56;;;;;;;3.08;1.10;;;;;;;15.60;100.00;101274.28;5024141;28;20354;-72
2024/04/07 07:36:22;;;;;;;;;;;;;;;15.68;100.00;101252.06;5024234;28;20037;-72
2024/04/07 07:38:47;;;;;;;3.47;0.90;;;;;;;15.79;100.00;101291.34;5045292;28;19920;-72
2024/04/07 07:41:14;;;;;;;3.95;1.08;;;;;;;15.89;100.00;101272.28;5026778;28;20517;-73
2024/04/07 07:43:40;;;;;;;2.60;0.73;;;;;;;16.00;100.00;101267.56;5017949;28;20040;-72
2024/04/07 07:46:05;;;;;;;5.50;1.05;;;;;;;16.13;100.00;101260.59;5041692;28;20041;-73
2024/04/07 07:48:31;;;;;;;4.38;0.95;;;;;;;16.20;100.00;101263.72;5042098;28;20047;-72
2024/04/07 07:50:56;;;;;;;2.67;0.75;;;;;;;16.22;100.00;101245.31;5038966;28;20417;-72
2024/04/07 07:53:22;;;;;;;2.50;1.00;;;;;;;16.28;100.00;101228.72;5039377;28;20051;-72
2024/04/07 07:55:49;;;;;;;2.92;0.88;;;;;;;16.33;100.00;101265.69;5035765;28;20034;-73
2024/04/07 07:58:14;;;;;;;2.08;0.80;;;;;;;16.34;100.00;101275.41;5039065;28;20251;-72
2024/04/07 08:00:41;;;;;;;;;;;;;;;16.35;100.00;101280.50;5037496;28;20553;-73
2024/04/07 08:03:07;;;;;;;2.28;1.00;;;;;;;16.36;100.00;101276.69;5040361;28;20031;-73
2024/04/07 08:05:34;;;;;;;;;;;;;;;16.36;100.00;101282.09;5044153;28;20107;-73
2024/04/07 08:07:59;;;;;;;2.33;0.90;;;;;;;16.34;100.00;101313.22;5044390;28;19917;-72
2024/04/07 08:10:26;;;;;;;;;;;;;;;16.35;100.00;101314.84;5043478;28;20021;-73
2024/04/07 08:12:52;;;;;;;1.38;0.60;;;;;;;16.42;100.00;101323.38;5041475;28;19967;-73
2024/04/07 08:15:18;;;;;;;2.67;1.02;;;;;;;16.47;100.00;101334.13;5021895;28;20037;-73
2024/04/07 08:17:43;;;;;;;1.88;0.70;;;;;;;16.49;100.00;101334.63;5052004;28;20029;-73
2024/04/07 08:20:09;;;;;;;2.95;1.42;;;;;;;16.46;100.00;101339.78;5038947;28;20033;-74
2024/04/07 08:22:34;;;;;;;3.08;0.70;;;;;;;16.41;100.00;101327.19;5045151;28;20080;-72
2024/04/07 08:25:00;;;;;;;;;;;;;;;16.27;100.00;101342.53;5026088;28;20039;-72
2024/04/07 08:27:25;;;;;;;1.73;0.70;;;;;;;16.18;100.00;101339.66;5043919;28;19924;-73
2024/04/07 08:29:51;;;;;;;;;;;;;;;16.11;100.00;101340.03;5042520;28;20033;-72
2024/04/07 08:32:16;;;;;;;2.75;0.90;;;;;;;16.07;100.00;101344.44;5042519;28;19924;-74
2024/04/07 08:34:42;;;;;;;2.60;0.80;;;;;;;16.04;100.00;101328.78;5044020;28;20028;-72
2024/04/07 08:37:08;;;;;;;2.75;1.10;;;;;;;16.03;100.00;101323.69;5025019;28;20048;-73
2024/04/07 08:39:34;;;;;;;1.25;0.50;;;;;;;16.00;100.00;101325.06;5040202;28;20037;-73
2024/04/07 08:42:00;;;;;;;;;;;;;;;15.98;100.00;101338.06;5042213;28;20044;-72
2024/04/07 08:44:27;;;;;;;1.75;0.80;;;;;;;16.03;100.00;101343.41;5041854;28;19916;-73
2024/04/07 08:46:54;;;;;;;4.78;0.65;;;;;;;16.11;100.00;101358.94;5045235;28;20041;-73
2024/04/07 08:49:21;;;;;;;2.40;0.88;;;;;;;16.18;100.00;101361.28;5041177;28;20413;-72
2024/04/07 08:51:50;;;;;;;3.00;0.73;;;;;;;16.24;100.00;101360.13;5043688;28;21299;-72
2024/04/07 08:54:17;;;;;;;3.78;1.20;;;;;;;16.22;100.00;101346.09;5049818;28;20025;-73
2024/04/07 08:56:44;;;;;;;3.15;0.80;;;;;;;16.24;100.00;101345.81;5040280;28;20037;-72
2024/04/07 08:59:13;;;;;;;2.25;0.90;;;;;;;16.24;100.00;101343.09;5041844;28;20116;-74
2024/04/07 09:01:44;;;;;;;3.83;0.75;;;;;;;16.29;100.00;101353.84;5054953;28;20029;-75
2024/04/07 09:04:13;;;;;;;2.47;0.93;;;;;;;16.36;100.00;101343.47;5036762;28;20482;-72
2024/04/07 09:06:39;;;;;;;4.43;0.60;;;;;;;16.40;100.00;101325.56;5042483;28;20231;-73
2024/04/07 09:09:05;;;;;;;2.80;0.82;;;;;;;16.41;100.00;101324.47;5042021;28;20490;-73
2024/04/07 09:11:37;;;;;;;2.58;0.77;;;;;;;16.45;100.00;101328.19;5041217;28;21169;-73
2024/04/07 09:14:05;;;;;;;2.28;1.05;;;;;;;16.44;100.00;101329.28;5041515;28;20494;-71
2024/04/07 09:16:31;;;;;;;2.58;0.90;;;;;;;16.41;100.00;101331.78;5036893;28;20027;-73
2024/04/07 09:18:58;;;;;;;2.90;0.80;;;;;;;16.36;100.00;101330.75;5038362;28;20044;-72
2024/04/07 09:21:23;;;;;;;3.53;0.93;;;;;;;16.35;100.00;101328.34;5041740;28;20037;-73
2024/04/07 09:23:49;;;;;;;2.63;1.00;;;;;;;16.37;100.00;101335.06;5021545;28;20044;-74
2024/04/07 09:26:16;;;;;;;2.58;1.08;;;;;;;16.46;100.00;101327.09;5025582;28;20107;-72
2024/04/07 09:28:41;;;;;;;4.82;0.98;;;;;;;16.68;100.00;101331.09;5025304;28;20561;-70
2024/04/07 09:31:07;;;;;;;3.53;1.35;;;;;;;16.93;100.00;101338.75;5022667;28;20561;-73
2024/04/07 09:33:37;;;;;;;3.45;0.93;;;;;;;17.19;100.00;101322.88;5022808;28;20049;-72
2024/04/07 09:36:03;;;;;;;4.68;0.77;;;;;;;17.38;100.00;101329.00;5021704;28;20935;-72
2024/04/07 09:38:29;;;;;;;3.28;0.80;;;;;;;17.55;100.00;101320.28;5040160;28;20060;-73
2024/04/07 09:41:01;;;;;;;3.78;1.02;;;;;;;17.67;100.00;101317.84;5035499;28;20044;-74
2024/04/07 09:43:29;;;;;;;2.25;0.82;;;;;;;17.79;100.00;101319.28;5036791;28;20127;-72
2024/04/07 09:45:55;;;;;;;4.32;1.00;;;;;;;17.91;100.00;101338.53;5041300;28;20383;-75
2024/04/07 09:48:25;;;;;;;1.90;0.80;;;;;;;17.99;100.00;101324.25;5023965;28;20037;-73
2024/04/07 09:50:57;;;;;;;5.25;1.10;;;;;;;18.11;100.00;101318.28;5034270;28;20037;-73
2024/04/07 09:53:27;;;;;;;;;;;;;;;18.24;100.00;101328.28;5036117;28;20087;-74
2024/04/07 09:55:55;;;;;;;;;;;;;;;18.31;100.00;101338.72;5035618;28;19924;-72
2024/04/07 09:58:23;;;;;;;4.60;1.38;;;;;;;18.40;100.00;101334.16;5039847;28;19917;-72
2024/04/07 10:00:50;;;;;;;4.20;0.63;;;;;;;18.50;100.00;101325.78;5042167;28;20045;-72
2024/04/07 10:03:16;;;;;;;3.08;1.20;;;;;;;18.46;100.00;101325.59;5042462;28;20033;-72
2024/04/07 10:05:42;;;;;;;2.55;0.80;;;;;;;18.51;100.00;101338.22;5039884;28;20705;-72
2024/04/07 10:08:08;;;;;;;2.45;1.00;;;;;;;18.58;100.00;101333.19;5042506;28;20041;-73
2024/04/07 10:10:37;;;;;;;5.00;0.88;;;;;;;18.69;100.00;101325.59;5023745;28;20060;-72
2024/04/07 10:13:10;;;;;;;4.88;1.00;;;;;;;18.78;100.00;101321.84;5042851;28;20079;-72
2024/04/07 10:15:37;;;;;;;4.47;1.00;;;;;;;18.83;100.00;101329.03;5019981;28;20041;-72
2024/04/07 10:18:17;;;;;;;4.07;1.13;;;;;;;18.86;100.00;101328.44;5019603;28;20044;-72
2024/04/07 10:20:43;;;;;;;4.47;0.73;;;;;;;18.92;100.00;101326.38;5040173;28;20033;-72
2024/04/07 10:23:12;;;;;;;5.15;1.30;;;;;;;18.89;100.00;101333.22;5021733;28;20037;-72
2024/04/07 10:25:46;;;;;;;4.13;1.25;;;;;;;18.84;100.00;101324.44;5012354;28;20514;-73
2024/04/07 10:28:13;;;;;;;2.60;1.20;;;;;;;18.94;100.00;101333.09;5020629;28;20407;-73
2024/04/07 10:30:56;;;;;;;3.35;1.10;;;;;;;19.06;100.00;101327.88;5022529;28;20045;-73
2024/04/07 10:33:28;;;;;;;2.83;1.20;;;;;;;19.16;100.00;101331.44;5040458;28;20525;-73
2024/04/07 10:35:59;;;;;;;3.65;0.70;;;;;;;19.16;100.00;101326.00;5042558;28;20033;-73
2024/04/07 10:38:25;;;;;;;2.15;0.82;;;;;;;19.11;100.00;101324.25;5042904;28;20116;-72
2024/04/07 10:40:52;;;;;;;3.38;0.70;;;;;;;19.17;100.00;101339.28;5039700;28;20174;-73
2024/04/07 10:43:18;;;;;;;4.00;1.20;;;;;;;19.27;100.00;101333.56;5040505;28;20029;-72
2024/04/07 10:45:44;;;;;;;4.28;0.80;;;;;;;19.33;100.00;101326.09;5008321;28;20045;-72
2024/04/07 10:48:10;;;;;;;2.42;1.10;;;;;;;19.36;100.00;101331.66;5009216;28;20041;-72
2024/04/07 10:50:36;;;;;;;4.22;0.80;;;;;;;19.30;100.00;101338.34;5025908;28;20067;-74
2024/04/07 10:53:06;;;;;;;2.00;0.68;;;;;;;19.21;98.76;101340.25;5043056;28;20040;-73
2024/04/07 10:55:33;;;;;;;6.53;1.40;;;;;;;19.23;100.00;101337.22;5044473;28;20048;-72
2024/04/07 10:58:00;;;;;;;3.78;0.80;;;;;;;19.21;100.00;101340.25;5027597;28;20028;-73
2024/04/07 11:00:26;;;;;;;2.45;0.80;;;;;;;19.23;95.57;101340.72;5026094;28;20049;-73
2024/04/07 11:02:53;;;;;;;3.20;0.90;;;;;;;19.19;96.95;101334.34;5046013;28;20033;-73
2024/04/07 11:05:19;;;;;;;2.95;0.90;;;;;;;19.23;99.61;101342.63;5027878;28;20400;-73
2024/04/07 11:07:46;;;;;;;4.88;0.90;;;;;;;19.35;100.00;101351.00;5042184;28;20537;-72
2024/04/07 11:10:11;;;;;;;3.15;1.15;;;;;;;19.33;94.27;101351.31;5026851;28;20889;-72
2024/04/07 11:12:43;;;;;;;3.67;0.85;;;;;;;19.30;92.29;101346.50;5042395;28;20037;-72
2024/04/07 11:15:19;;;;;;;3.00;1.10;;;;;;;19.42;98.73;101348.63;5039111;28;20126;-73
2024/04/07 11:17:45;;;;;;;4.32;1.20;;;;;;;19.44;97.06;101342.88;5066783;28;20037;-71
2024/04/07 11:20:12;;;;;;;3.38;1.13;;;;;;;19.55;100.00;101355.06;5040201;28;20479;-72
2024/04/07 11:22:39;;;;;;;2.50;0.88;;;;;;;19.59;93.25;101361.50;5038659;28;20045;-72
2024/04/07 11:25:05;;;;;;;2.00;0.80;;;;;;;19.54;94.52;101356.19;5029283;28;20079;-72
2024/04/07 11:27:33;;;;;;;2.05;0.77;;;;;;;19.56;98.95;101364.81;5033005;28;20048;-74